Terminal Aerodrome Forecast
Issued by NWS

Home | Current Version | Previous Version | Text Only | Print | Product List | Glossary On
Versions: 1 2 3 4 5 6 7 8 9 10 11 12 13 14 15 16 17 18 19 20 21 22 23 24
862
FTUS44 KOUN 222326
TAFCSM
TAF
KCSM 222326Z 2300/2324 05011KT P6SM VCTS BKN080CB
      TEMPO 2300/2304 3SM TSRA OVC030CB
     FM230400 06011KT P6SM VCSH OVC040
      TEMPO 2304/2308 3SM -TSRA OVC020CB
     FM231000 06011KT P6SM BKN040
     FM231400 06011KT P6SM SCT040 SCT250=

USA.gov is the U.S. government's official web portal to all federal, state and local government web resources and services.